createdAt,value
2022-11-16T00:00:44.508Z,99967.06
2022-11-16T00:03:48.513Z,99963.87
2022-11-16T00:06:51.195Z,99953.66
2022-11-16T00:09:54.121Z,99954.13
2022-11-16T00:12:56.621Z,99949.13
2022-11-16T00:16:00.082Z,99946.00
2022-11-16T00:19:05.141Z,99946.13
2022-11-16T00:22:08.043Z,99950.59
2022-11-16T00:25:10.595Z,99943.66
2022-11-16T00:28:13.492Z,99919.75
2022-11-16T00:31:16.046Z,99941.00
2022-11-16T00:34:19.851Z,99914.78
2022-11-16T00:37:22.407Z,99908.47
2022-11-16T00:40:25.358Z,99907.78
2022-11-16T00:43:28.561Z,99904.66
2022-11-16T00:46:31.621Z,99919.06
2022-11-16T00:49:34.375Z,99910.03
2022-11-16T00:52:37.219Z,99906.50
2022-11-16T00:55:40.875Z,99903.72
2022-11-16T00:58:44.516Z,99889.34
2022-11-16T01:01:47.443Z,99902.66
2022-11-16T01:04:50.479Z,99885.00
2022-11-16T01:07:53.528Z,99893.22
2022-11-16T01:11:16.405Z,99885.06
2022-11-16T01:14:19.034Z,99886.59
2022-11-16T01:17:21.890Z,99875.22
2022-11-16T01:20:29.107Z,99874.13
2022-11-16T01:23:32.158Z,99865.94
2022-11-16T01:26:34.679Z,99850.69
2022-11-16T01:29:37.474Z,99850.72
2022-11-16T01:32:40.340Z,99841.34
2022-11-16T01:35:44.084Z,99828.06
2022-11-16T01:38:48.222Z,99824.94
2022-11-16T01:41:53.188Z,99821.03
2022-11-16T01:45:07.326Z,99808.53
2022-11-16T01:48:17.768Z,99810.47
2022-11-16T01:51:21.997Z,99806.16
2022-11-16T01:54:25.895Z,99796.06
2022-11-16T01:57:35.666Z,99792.16
2022-11-16T02:00:39.396Z,99793.31
2022-11-16T02:03:45.002Z,99781.22
2022-11-16T02:07:08.831Z,99773.41
2022-11-16T02:10:41.379Z,99771.75
2022-11-16T02:13:58.593Z,99760.81
2022-11-16T02:17:27.709Z,99752.97
2022-11-16T02:20:42.500Z,99756.50
2022-11-16T02:23:54.494Z,99749.56
2022-11-16T02:27:40.131Z,99744.88
2022-11-16T02:30:53.598Z,99745.22
2022-11-16T02:33:57.532Z,99739.75
2022-11-16T02:37:03.117Z,99734.63
2022-11-16T02:40:11.140Z,99740.91
2022-11-16T02:43:21.918Z,99730.38
2022-11-16T02:46:31.722Z,99732.69
2022-11-16T02:49:40.456Z,99726.44
2022-11-16T02:52:43.024Z,99721.41
2022-11-16T02:55:46.243Z,99717.91
2022-11-16T02:58:49.010Z,99716.78
2022-11-16T03:02:01.993Z,99721.03
2022-11-16T03:05:17.119Z,99708.94
2022-11-16T03:08:31.329Z,99711.25
2022-11-16T03:11:56.498Z,99707.31
2022-11-16T03:15:10.094Z,99708.81
2022-11-16T03:18:15.712Z,99704.44
2022-11-16T03:21:30.621Z,99708.50
2022-11-16T03:24:33.360Z,99708.44
2022-11-16T03:27:42.758Z,99708.81
2022-11-16T03:31:21.927Z,99701.75
2022-11-16T03:34:30.317Z,99707.25
2022-11-16T03:37:34.536Z,99701.41
2022-11-16T03:40:39.293Z,99694.34
2022-11-16T03:43:44.543Z,99692.84
2022-11-16T03:46:48.611Z,99688.84
2022-11-16T03:49:51.384Z,99687.69
2022-11-16T03:52:54.754Z,99681.03
2022-11-16T03:55:57.779Z,99676.75
2022-11-16T03:59:03.043Z,99680.25
2022-11-16T04:02:05.671Z,99671.34
2022-11-16T04:05:28.602Z,99671.63
2022-11-16T04:08:50.017Z,99664.59
2022-11-16T04:12:31.656Z,99660.72
2022-11-16T04:15:52.958Z,99656.41
2022-11-16T04:19:14.765Z,99656.81
2022-11-16T04:22:41.094Z,99652.13
2022-11-16T04:25:46.335Z,99636.97
2022-11-16T04:28:50.163Z,99621.28
2022-11-16T04:32:11.593Z,99633.00
2022-11-16T04:35:46.854Z,99618.09
2022-11-16T04:38:50.155Z,99611.59
2022-11-16T04:42:12.431Z,99605.28
2022-11-16T04:45:34.093Z,99611.53
2022-11-16T04:48:37.011Z,99607.97
2022-11-16T04:51:40.096Z,99625.50
2022-11-16T04:54:42.832Z,99638.50
2022-11-16T04:57:45.999Z,99625.88
2022-11-16T05:00:48.850Z,99636.13
2022-11-16T05:03:51.838Z,99626.75
2022-11-16T05:06:54.731Z,99627.94
2022-11-16T05:09:58.244Z,99624.41
2022-11-16T05:13:01.750Z,99632.25
2022-11-16T05:16:05.021Z,99624.84
2022-11-16T05:19:26.535Z,99627.56
2022-11-16T05:22:29.862Z,99598.97
2022-11-16T05:25:36.706Z,99606.47
2022-11-16T05:28:40.477Z,99596.69
2022-11-16T05:31:44.602Z,99600.62
2022-11-16T05:34:48.407Z,99605.69
2022-11-16T05:37:51.929Z,99602.16
2022-11-16T05:40:55.037Z,99606.03
2022-11-16T05:43:58.376Z,99606.41
2022-11-16T05:47:02.193Z,99605.25
2022-11-16T05:50:05.170Z,99591.28
2022-11-16T05:53:08.666Z,99597.22
2022-11-16T05:56:14.277Z,99601.09
2022-11-16T05:59:19.942Z,99590.56
2022-11-16T06:02:23.628Z,99581.94
2022-11-16T06:05:27.049Z,99576.13
2022-11-16T06:08:30.597Z,99592.53
2022-11-16T06:11:35.945Z,99591.00
2022-11-16T06:14:39.528Z,99592.94
2022-11-16T06:17:43.451Z,99585.50
2022-11-16T06:20:47.896Z,99586.25
2022-11-16T06:23:50.868Z,99579.19
2022-11-16T06:26:53.702Z,99580.50
2022-11-16T06:29:57.635Z,99585.56
2022-11-16T06:33:00.357Z,99596.00
2022-11-16T06:36:03.454Z,99598.66
2022-11-16T06:39:06.766Z,99585.25
2022-11-16T06:42:10.266Z,99575.88
2022-11-16T06:45:14.154Z,99572.81
2022-11-16T06:48:18.608Z,99575.91
2022-11-16T06:51:21.510Z,99589.94
2022-11-16T06:54:24.409Z,99576.72
2022-11-16T06:57:27.756Z,99575.94
2022-11-16T07:00:30.877Z,99570.53
2022-11-16T07:03:34.953Z,99566.63
2022-11-16T07:06:39.317Z,99555.28
2022-11-16T07:09:44.577Z,99554.56
2022-11-16T07:12:47.758Z,99535.37
2022-11-16T07:15:50.915Z,99540.88
2022-11-16T07:18:59.259Z,99536.59
2022-11-16T07:22:04.376Z,99540.16
2022-11-16T07:25:08.256Z,99543.66
2022-11-16T07:28:10.971Z,99547.97
2022-11-16T07:31:15.426Z,99547.97
2022-11-16T07:34:18.765Z,99537.88
2022-11-16T07:37:22.080Z,99535.91
2022-11-16T07:40:24.876Z,99533.91
2022-11-16T07:43:32.723Z,99528.87
2022-11-16T07:46:46.406Z,99531.59
2022-11-16T07:49:50.383Z,99523.44
2022-11-16T07:52:55.590Z,99512.50
2022-11-16T07:55:58.590Z,99518.72
2022-11-16T07:59:01.732Z,99512.09
2022-11-16T08:02:05.924Z,99498.03
2022-11-16T08:05:09.162Z,99501.16
2022-11-16T08:08:13.651Z,99493.81
2022-11-16T08:11:16.942Z,99495.78
2022-11-16T08:14:20.213Z,99510.63
2022-11-16T08:17:23.643Z,99506.72
2022-11-16T08:20:28.683Z,99499.69
2022-11-16T08:23:33.082Z,99502.06
2022-11-16T08:26:35.637Z,99504.44
2022-11-16T08:29:39.103Z,99490.34
2022-11-16T08:32:42.505Z,99502.09
2022-11-16T08:35:45.785Z,99497.81
2022-11-16T08:38:52.982Z,99495.06
2022-11-16T08:41:56.589Z,99484.13
2022-11-16T08:44:59.473Z,99488.78
2022-11-16T08:48:04.440Z,99481.75
2022-11-16T08:51:19.492Z,99485.66
2022-11-16T08:54:23.803Z,99483.72
2022-11-16T08:57:26.578Z,99493.09
2022-11-16T09:00:30.504Z,99474.72
2022-11-16T09:03:33.169Z,99482.53
2022-11-16T09:06:36.872Z,99479.78
2022-11-16T09:09:39.498Z,99480.59
2022-11-16T09:12:42.866Z,99477.06
2022-11-16T09:15:45.572Z,99476.25
2022-11-16T09:18:51.947Z,99473.13
2022-11-16T09:21:54.756Z,99480.94
2022-11-16T09:24:57.601Z,99472.31
2022-11-16T09:28:00.185Z,99469.94
2022-11-16T09:31:06.042Z,99466.81
2022-11-16T09:34:08.954Z,99467.59
2022-11-16T09:37:11.792Z,99461.31
2022-11-16T09:40:14.482Z,99447.25
2022-11-16T09:43:32.675Z,99457.81
2022-11-16T09:46:48.927Z,99449.97
2022-11-16T09:50:02.892Z,99436.22
2022-11-16T09:53:18.321Z,99438.53
2022-11-16T09:56:29.285Z,99422.88
2022-11-16T09:59:49.815Z,99415.84
2022-11-16T10:03:13.482Z,99417.81
2022-11-16T10:06:28.954Z,99422.16
2022-11-16T10:09:32.058Z,99414.34
2022-11-16T10:12:59.778Z,99405.31
2022-11-16T10:16:13.764Z,99409.25
2022-11-16T10:19:31.660Z,99399.41
2022-11-16T10:22:50.431Z,99394.66
2022-11-16T10:25:59.062Z,99386.78
2022-11-16T10:29:33.602Z,99373.50
2022-11-16T10:32:47.781Z,99370.31
2022-11-16T10:35:54.045Z,99358.16
2022-11-16T10:38:59.462Z,99349.97
2022-11-16T10:42:07.607Z,99343.22
2022-11-16T10:45:11.529Z,99329.94
2022-11-16T10:48:32.456Z,99327.56
2022-11-16T10:51:35.505Z,99316.06
2022-11-16T10:54:42.956Z,99316.84
2022-11-16T10:57:56.125Z,99318.34
2022-11-16T11:00:59.270Z,99311.84
2022-11-16T11:04:15.644Z,99307.56
2022-11-16T11:07:31.689Z,99312.16
2022-11-16T11:10:37.516Z,99302.75
2022-11-16T11:13:40.209Z,99297.16
2022-11-16T11:16:43.063Z,99296.56
2022-11-16T11:19:45.681Z,99293.38
2022-11-16T11:23:00.669Z,99294.81
2022-11-16T11:26:03.461Z,99299.56
2022-11-16T11:29:35.233Z,99298.00
2022-11-16T11:32:40.585Z,99296.78
2022-11-16T11:35:43.610Z,99295.94
2022-11-16T11:39:03.456Z,99284.19
2022-11-16T11:42:20.777Z,99278.88
2022-11-16T11:45:44.045Z,99281.97
2022-11-16T11:48:58.044Z,99276.25
2022-11-16T11:52:10.713Z,99279.38
2022-11-16T11:55:16.921Z,99286.41
2022-11-16T11:58:20.307Z,99272.28
2022-11-16T12:02:02.375Z,99267.97
2022-11-16T12:05:11.738Z,99274.56
2022-11-16T12:08:52.008Z,99258.88
2022-11-16T12:12:14.968Z,99254.97
2022-11-16T12:15:53.222Z,99263.19
2022-11-16T12:19:08.595Z,99258.88
2022-11-16T12:22:33.941Z,99262.06
2022-11-16T12:25:45.598Z,99244.53
2022-11-16T12:28:51.057Z,99244.88
2022-11-16T12:32:25.407Z,99255.09
2022-11-16T12:35:45.332Z,99250.00
2022-11-16T12:39:12.805Z,99254.28
2022-11-16T12:42:27.205Z,99197.69
2022-11-16T12:45:54.663Z,99244.84
2022-11-16T12:49:34.641Z,99237.78
2022-11-16T12:53:04.097Z,99243.66
2022-11-16T12:56:06.571Z,99227.62
2022-11-16T12:59:15.315Z,99224.47
2022-11-16T13:02:23.676Z,99224.91
2022-11-16T13:05:36.665Z,99210.47
2022-11-16T13:09:11.814Z,99211.25
2022-11-16T13:12:21.481Z,99216.78
2022-11-16T13:15:33.731Z,99208.13
2022-11-16T13:18:42.943Z,99203.81
2022-11-16T13:21:59.865Z,99213.97
2022-11-16T13:25:21.008Z,99215.13
2022-11-16T13:28:41.171Z,99207.75
2022-11-16T13:31:55.523Z,99186.56
2022-11-16T13:35:00.249Z,99183.06
2022-11-16T13:38:03.135Z,99177.53
2022-11-16T13:41:31.079Z,99188.62
2022-11-16T13:44:34.907Z,99190.19
2022-11-16T13:47:37.702Z,99185.87
2022-11-16T13:50:49.343Z,99182.06
2022-11-16T13:57:34.590Z,99169.47
2022-11-16T14:00:40.405Z,99166.34
2022-11-16T14:03:49.011Z,99174.19
2022-11-16T14:06:51.483Z,99168.34
2022-11-16T14:09:54.338Z,99168.34
2022-11-16T14:12:57.534Z,99168.72
2022-11-16T14:16:49.099Z,99160.56
2022-11-16T14:19:55.196Z,99166.78
2022-11-16T14:23:16.432Z,99154.63
2022-11-16T14:26:37.394Z,99156.59
2022-11-16T14:29:58.811Z,99154.22
2022-11-16T14:33:01.757Z,99138.56
2022-11-16T14:36:07.695Z,99141.28
2022-11-16T14:39:31.136Z,99138.19
2022-11-16T14:43:09.570Z,99126.03
2022-11-16T14:46:15.851Z,99107.31
2022-11-16T14:49:20.453Z,99109.31
2022-11-16T14:52:39.092Z,99107.44
2022-11-16T14:55:44.966Z,99103.88
2022-11-16T14:59:06.057Z,99109.81
2022-11-16T15:02:23.140Z,99104.63
2022-11-16T15:05:33.539Z,99103.81
2022-11-16T15:08:45.413Z,99099.16
2022-11-16T15:12:08.896Z,99096.38
2022-11-16T15:15:11.686Z,99096.00
2022-11-16T15:18:18.556Z,99097.19
2022-11-16T15:21:23.045Z,99085.06
2022-11-16T15:24:31.757Z,99087.44
2022-11-16T15:27:41.037Z,99089.75
2022-11-16T15:30:48.666Z,99083.91
2022-11-16T15:33:52.228Z,99087.06
2022-11-16T15:36:54.778Z,99094.50
2022-11-16T15:40:00.021Z,99091.78
2022-11-16T15:43:05.070Z,99088.25
2022-11-16T15:46:08.896Z,99089.72
2022-11-16T15:49:36.331Z,99080.00
2022-11-16T15:52:46.141Z,99076.13
2022-11-16T15:55:50.212Z,99078.47
2022-11-16T15:58:55.062Z,99078.06
2022-11-16T16:01:58.055Z,99080.78
2022-11-16T16:05:00.816Z,99078.06
2022-11-16T16:08:04.134Z,99069.81
2022-11-16T16:11:27.660Z,99059.62
2022-11-16T16:14:31.118Z,99060.03
2022-11-16T16:17:34.390Z,99063.66
2022-11-16T16:20:37.917Z,99058.63
2022-11-16T16:23:48.524Z,99078.50
2022-11-16T16:26:51.110Z,99072.25
2022-11-16T16:29:56.646Z,99063.16
2022-11-16T16:32:59.459Z,99062.78
2022-11-16T16:36:02.480Z,99067.38
2022-11-16T16:39:05.132Z,99070.97
2022-11-16T16:42:11.743Z,99071.03
2022-11-16T16:45:20.862Z,99070.69
2022-11-16T16:48:23.693Z,99075.69
2022-11-16T16:51:26.347Z,99071.03
2022-11-16T16:54:29.641Z,99080.84
2022-11-16T16:57:32.223Z,99079.69
2022-11-16T17:00:35.488Z,99067.56
2022-11-16T17:03:38.066Z,99074.13
2022-11-16T17:06:46.180Z,99065.16
2022-11-16T17:09:49.096Z,99066.69
2022-11-16T17:12:55.813Z,99064.28
2022-11-16T17:15:59.060Z,99056.59
2022-11-16T17:19:03.722Z,99064.37
2022-11-16T17:22:06.483Z,99058.78
2022-11-16T17:25:10.672Z,99053.72
2022-11-16T17:28:13.378Z,99047.47
2022-11-16T17:31:17.500Z,99045.09
2022-11-16T17:34:20.039Z,99042.34
2022-11-16T17:37:22.871Z,99040.72
2022-11-16T17:40:25.543Z,99023.50
2022-11-16T17:43:28.638Z,99013.38
2022-11-16T17:46:31.229Z,99013.84
2022-11-16T17:49:34.052Z,99020.78
2022-11-16T17:52:36.901Z,99018.81
2022-11-16T17:55:40.523Z,99019.97
2022-11-16T17:58:45.079Z,99020.00
2022-11-16T18:01:49.443Z,99020.06
2022-11-16T18:04:52.645Z,99016.88
2022-11-16T18:07:55.463Z,99006.34
2022-11-16T18:11:06.686Z,99006.75
2022-11-16T18:14:10.596Z,98993.13
2022-11-16T18:17:13.676Z,99003.16
2022-11-16T18:20:17.635Z,99000.19
2022-11-16T18:23:20.655Z,99008.28
2022-11-16T18:26:24.152Z,98994.72
2022-11-16T18:29:27.584Z,99005.25
2022-11-16T18:32:30.701Z,99002.16
2022-11-16T18:35:33.830Z,98990.84
2022-11-16T18:38:37.500Z,98997.81
2022-11-16T18:41:50.124Z,98989.91
2022-11-16T18:44:56.304Z,98985.63
2022-11-16T18:47:59.362Z,98991.53
2022-11-16T18:51:04.376Z,98988.34
2022-11-16T18:54:08.608Z,98983.69
2022-11-16T18:57:11.378Z,98993.09
2022-11-16T19:00:15.780Z,98986.78
2022-11-16T19:03:18.404Z,98986.78
2022-11-16T19:06:22.549Z,98987.87
2022-11-16T19:09:26.336Z,98986.72
2022-11-16T19:12:29.930Z,98978.06
2022-11-16T19:15:34.474Z,98981.25
2022-11-16T19:18:39.717Z,98980.81
2022-11-16T19:21:42.706Z,98989.13
2022-11-16T19:24:46.134Z,98982.84
2022-11-16T19:27:48.884Z,98979.37
2022-11-16T19:30:52.101Z,98981.28
2022-11-16T19:33:57.346Z,98980.56
2022-11-16T19:37:00.569Z,98973.16
2022-11-16T19:40:04.093Z,98975.41
2022-11-16T19:43:07.163Z,98974.63
2022-11-16T19:46:23.231Z,98974.13
2022-11-16T19:49:26.502Z,98967.91
2022-11-16T19:52:29.434Z,98977.72
2022-11-16T19:55:34.756Z,98977.72
2022-11-16T19:58:38.647Z,98979.66
2022-11-16T20:01:41.909Z,98984.41
2022-11-16T20:04:45.009Z,98982.47
2022-11-16T20:07:48.826Z,98989.47
2022-11-16T20:10:51.903Z,98984.38
2022-11-16T20:13:57.837Z,98981.22
2022-11-16T20:17:01.003Z,98968.69
2022-11-16T20:20:04.609Z,98978.06
2022-11-16T20:23:07.702Z,98964.03
2022-11-16T20:26:12.385Z,98974.91
2022-11-16T20:29:18.505Z,98978.00
2022-11-16T20:32:21.758Z,98967.06
2022-11-16T20:35:24.623Z,98973.31
2022-11-16T20:38:27.275Z,98978.13
2022-11-16T20:41:32.221Z,98972.19
2022-11-16T20:44:35.083Z,98969.44
2022-11-16T20:47:38.031Z,98969.47
2022-11-16T20:50:40.947Z,98958.63
2022-11-16T20:53:46.408Z,98958.59
2022-11-16T20:56:50.495Z,98950.97
2022-11-16T20:59:53.562Z,98946.69
2022-11-16T21:02:56.415Z,98962.69
2022-11-16T21:06:00.363Z,98952.50
2022-11-16T21:09:04.725Z,98960.03
2022-11-16T21:12:27.995Z,98950.63
2022-11-16T21:15:30.978Z,98947.84
2022-11-16T21:18:34.629Z,98945.50
2022-11-16T21:21:38.559Z,98944.03
2022-11-16T21:24:41.468Z,98943.56
2022-11-16T21:27:44.195Z,98939.28
2022-11-16T21:31:17.805Z,98939.69
2022-11-16T21:34:20.919Z,98929.97
2022-11-16T21:37:23.937Z,98932.69
2022-11-16T21:40:26.518Z,98929.62
2022-11-16T21:43:29.338Z,98940.87
2022-11-16T21:46:31.841Z,98942.13
2022-11-16T21:49:39.652Z,98951.91
2022-11-16T21:52:50.183Z,98944.53
2022-11-16T21:55:53.043Z,98941.78
2022-11-16T21:58:55.688Z,98949.97
2022-11-16T22:02:01.358Z,98943.69
2022-11-16T22:05:22.907Z,98942.47
2022-11-16T22:08:25.599Z,98931.53
2022-11-16T22:11:28.723Z,98923.75
2022-11-16T22:14:31.255Z,98941.00
2022-11-16T22:17:34.171Z,98947.19
2022-11-16T22:20:36.725Z,98951.88
2022-11-16T22:23:40.051Z,98946.88
2022-11-16T22:26:43.037Z,98937.94
2022-11-16T22:29:45.910Z,98938.78
2022-11-16T22:32:48.434Z,98928.28
2022-11-16T22:35:51.272Z,98937.28
2022-11-16T22:38:57.088Z,98938.94
2022-11-16T22:42:00.127Z,98945.94
2022-11-16T22:45:02.737Z,98943.72
2022-11-16T22:48:06.017Z,98943.66
2022-11-16T22:51:27.937Z,98949.03
2022-11-16T22:54:30.990Z,98951.50
2022-11-16T22:57:33.506Z,98952.34
2022-11-16T23:00:41.823Z,98957.00
2022-11-16T23:03:46.069Z,98956.25
2022-11-16T23:06:49.639Z,98952.31
2022-11-16T23:09:52.209Z,98946.94
2022-11-16T23:13:13.597Z,98949.28
2022-11-16T23:16:16.149Z,98961.91
2022-11-16T23:19:39.938Z,98953.62
2022-11-16T23:23:00.954Z,98955.28
2022-11-16T23:26:29.426Z,98955.66
2022-11-16T23:29:32.165Z,98954.19
2022-11-16T23:32:42.318Z,98936.56
2022-11-16T23:35:44.908Z,98935.84
2022-11-16T23:38:47.769Z,98929.19
2022-11-16T23:42:08.687Z,98933.47
2022-11-16T23:45:11.664Z,98929.91
2022-11-16T23:48:16.002Z,98924.50
2022-11-16T23:51:19.630Z,98915.47
2022-11-16T23:54:22.171Z,98897.94
2022-11-16T23:57:25.062Z,98899.56
